sensor_id;sensor_type;location;lat;lon;timestamp;P1;durP1;ratioP1;P2;durP2;ratioP2
28170;SDS011;15458;53.346;-1.688;2023-02-02T00:02:04;24.15;;;3.35;;
28170;SDS011;15458;53.346;-1.688;2023-02-02T00:04:30;19.50;;;2.75;;
28170;SDS011;15458;53.346;-1.688;2023-02-02T00:06:57;10.20;;;2.55;;
28170;SDS011;15458;53.346;-1.688;2023-02-02T00:09:25;31.45;;;4.43;;
28170;SDS011;15458;53.346;-1.688;2023-02-02T00:11:55;16.75;;;2.92;;
28170;SDS011;15458;53.346;-1.688;2023-02-02T00:14:21;25.67;;;5.00;;
28170;SDS011;15458;53.346;-1.688;2023-02-02T00:16:48;22.17;;;3.80;;
28170;SDS011;15458;53.346;-1.688;2023-02-02T00:19:22;20.92;;;3.60;;
28170;SDS011;15458;53.346;-1.688;2023-02-02T00:21:51;10.75;;;1.70;;
28170;SDS011;15458;53.346;-1.688;2023-02-02T00:24:17;21.17;;;3.15;;
28170;SDS011;15458;53.346;-1.688;2023-02-02T00:26:44;11.40;;;2.33;;
28170;SDS011;15458;53.346;-1.688;2023-02-02T00:29:13;10.93;;;1.90;;
28170;SDS011;15458;53.346;-1.688;2023-02-02T00:31:43;22.38;;;2.70;;
28170;SDS011;15458;53.346;-1.688;2023-02-02T00:34:10;16.90;;;2.33;;
28170;SDS011;15458;53.346;-1.688;2023-02-02T00:36:36;20.40;;;3.00;;
28170;SDS011;15458;53.346;-1.688;2023-02-02T00:39:02;22.02;;;3.90;;
28170;SDS011;15458;53.346;-1.688;2023-02-02T00:41:27;16.38;;;4.78;;
28170;SDS011;15458;53.346;-1.688;2023-02-02T00:43:53;20.13;;;2.72;;
28170;SDS011;15458;53.346;-1.688;2023-02-02T00:46:38;20.80;;;4.35;;
28170;SDS011;15458;53.346;-1.688;2023-02-02T00:49:04;19.58;;;2.85;;
28170;SDS011;15458;53.346;-1.688;2023-02-02T00:51:30;20.13;;;3.05;;
28170;SDS011;15458;53.346;-1.688;2023-02-02T00:53:56;16.35;;;2.65;;
28170;SDS011;15458;53.346;-1.688;2023-02-02T00:56:21;23.23;;;3.25;;
28170;SDS011;15458;53.346;-1.688;2023-02-02T00:58:47;26.33;;;3.60;;
28170;SDS011;15458;53.346;-1.688;2023-02-02T01:01:16;13.05;;;2.25;;
28170;SDS011;15458;53.346;-1.688;2023-02-02T01:03:43;14.75;;;2.30;;
28170;SDS011;15458;53.346;-1.688;2023-02-02T01:06:08;20.02;;;2.83;;
28170;SDS011;15458;53.346;-1.688;2023-02-02T01:08:34;10.10;;;2.20;;
28170;SDS011;15458;53.346;-1.688;2023-02-02T01:11:00;10.27;;;2.13;;
28170;SDS011;15458;53.346;-1.688;2023-02-02T01:13:26;13.73;;;2.25;;
28170;SDS011;15458;53.346;-1.688;2023-02-02T01:15:55;12.35;;;1.70;;
28170;SDS011;15458;53.346;-1.688;2023-02-02T01:18:21;14.10;;;1.97;;
28170;SDS011;15458;53.346;-1.688;2023-02-02T01:20:47;15.38;;;2.00;;
28170;SDS011;15458;53.346;-1.688;2023-02-02T01:23:20;16.98;;;2.95;;
28170;SDS011;15458;53.346;-1.688;2023-02-02T01:25:51;16.45;;;2.40;;
28170;SDS011;15458;53.346;-1.688;2023-02-02T01:28:24;13.55;;;2.35;;
28170;SDS011;15458;53.346;-1.688;2023-02-02T01:30:50;17.35;;;2.42;;
28170;SDS011;15458;53.346;-1.688;2023-02-02T01:33:16;13.65;;;2.22;;
28170;SDS011;15458;53.346;-1.688;2023-02-02T01:35:50;16.67;;;4.22;;
28170;SDS011;15458;53.346;-1.688;2023-02-02T01:38:20;14.68;;;2.33;;
28170;SDS011;15458;53.346;-1.688;2023-02-02T01:40:50;10.55;;;1.80;;
28170;SDS011;15458;53.346;-1.688;2023-02-02T01:48:22;16.58;;;2.30;;
28170;SDS011;15458;53.346;-1.688;2023-02-02T01:50:52;29.58;;;3.83;;
28170;SDS011;15458;53.346;-1.688;2023-02-02T01:53:21;15.75;;;2.05;;
28170;SDS011;15458;53.346;-1.688;2023-02-02T01:55:48;12.55;;;1.80;;
28170;SDS011;15458;53.346;-1.688;2023-02-02T01:58:16;13.55;;;2.47;;
28170;SDS011;15458;53.346;-1.688;2023-02-02T02:00:46;10.02;;;1.85;;
28170;SDS011;15458;53.346;-1.688;2023-02-02T02:03:16;10.75;;;2.17;;
28170;SDS011;15458;53.346;-1.688;2023-02-02T02:05:47;15.55;;;2.13;;
28170;SDS011;15458;53.346;-1.688;2023-02-02T02:08:26;17.23;;;2.35;;
28170;SDS011;15458;53.346;-1.688;2023-02-02T02:10:56;14.50;;;2.10;;
28170;SDS011;15458;53.346;-1.688;2023-02-02T02:13:23;14.15;;;2.38;;
28170;SDS011;15458;53.346;-1.688;2023-02-02T02:30:44;8.13;;;2.03;;
28170;SDS011;15458;53.346;-1.688;2023-02-02T02:33:35;13.07;;;1.88;;
28170;SDS011;15458;53.346;-1.688;2023-02-02T02:36:31;21.17;;;2.70;;
28170;SDS011;15458;53.346;-1.688;2023-02-02T02:41:54;12.85;;;3.40;;
28170;SDS011;15458;53.346;-1.688;2023-02-02T02:44:24;22.48;;;3.75;;
28170;SDS011;15458;53.346;-1.688;2023-02-02T02:46:52;13.90;;;3.58;;
28170;SDS011;15458;53.346;-1.688;2023-02-02T02:49:18;12.85;;;3.13;;
28170;SDS011;15458;53.346;-1.688;2023-02-02T02:51:45;11.23;;;2.58;;
28170;SDS011;15458;53.346;-1.688;2023-02-02T02:54:12;8.27;;;3.20;;
28170;SDS011;15458;53.346;-1.688;2023-02-02T02:56:42;9.93;;;3.33;;
28170;SDS011;15458;53.346;-1.688;2023-02-02T03:02:13;10.45;;;2.90;;
28170;SDS011;15458;53.346;-1.688;2023-02-02T03:07:46;10.25;;;3.25;;
28170;SDS011;15458;53.346;-1.688;2023-02-02T03:10:22;12.80;;;2.50;;
28170;SDS011;15458;53.346;-1.688;2023-02-02T03:12:52;20.27;;;2.83;;
28170;SDS011;15458;53.346;-1.688;2023-02-02T03:15:19;11.02;;;3.40;;
28170;SDS011;15458;53.346;-1.688;2023-02-02T03:17:45;10.85;;;3.00;;
28170;SDS011;15458;53.346;-1.688;2023-02-02T03:20:13;12.43;;;3.00;;
28170;SDS011;15458;53.346;-1.688;2023-02-02T03:22:38;10.70;;;3.55;;
28170;SDS011;15458;53.346;-1.688;2023-02-02T03:25:05;10.07;;;2.10;;
28170;SDS011;15458;53.346;-1.688;2023-02-02T03:27:31;11.18;;;2.13;;
28170;SDS011;15458;53.346;-1.688;2023-02-02T03:29:57;14.63;;;2.78;;
28170;SDS011;15458;53.346;-1.688;2023-02-02T03:32:23;8.65;;;2.72;;
28170;SDS011;15458;53.346;-1.688;2023-02-02T03:34:49;9.88;;;1.80;;
28170;SDS011;15458;53.346;-1.688;2023-02-02T03:37:14;9.10;;;1.90;;
28170;SDS011;15458;53.346;-1.688;2023-02-02T03:39:40;13.60;;;1.70;;
28170;SDS011;15458;53.346;-1.688;2023-02-02T03:42:06;10.90;;;2.03;;
28170;SDS011;15458;53.346;-1.688;2023-02-02T03:44:31;13.32;;;2.10;;
28170;SDS011;15458;53.346;-1.688;2023-02-02T03:46:57;8.63;;;2.22;;
28170;SDS011;15458;53.346;-1.688;2023-02-02T03:49:23;8.20;;;1.67;;
28170;SDS011;15458;53.346;-1.688;2023-02-02T03:51:48;19.17;;;5.22;;
28170;SDS011;15458;53.346;-1.688;2023-02-02T03:54:14;9.60;;;1.75;;
28170;SDS011;15458;53.346;-1.688;2023-02-02T03:56:39;9.88;;;1.70;;
28170;SDS011;15458;53.346;-1.688;2023-02-02T03:59:05;11.18;;;2.30;;
28170;SDS011;15458;53.346;-1.688;2023-02-02T04:01:31;10.75;;;1.80;;
28170;SDS011;15458;53.346;-1.688;2023-02-02T04:03:56;10.23;;;2.65;;
28170;SDS011;15458;53.346;-1.688;2023-02-02T04:06:23;11.93;;;2.28;;
28170;SDS011;15458;53.346;-1.688;2023-02-02T04:08:49;7.28;;;1.92;;
28170;SDS011;15458;53.346;-1.688;2023-02-02T04:11:16;13.50;;;2.22;;
28170;SDS011;15458;53.346;-1.688;2023-02-02T04:13:42;9.02;;;2.50;;
28170;SDS011;15458;53.346;-1.688;2023-02-02T04:16:08;11.00;;;2.80;;
28170;SDS011;15458;53.346;-1.688;2023-02-02T04:18:34;13.70;;;4.72;;
28170;SDS011;15458;53.346;-1.688;2023-02-02T04:21:03;10.10;;;2.22;;
28170;SDS011;15458;53.346;-1.688;2023-02-02T04:23:30;13.23;;;2.60;;
28170;SDS011;15458;53.346;-1.688;2023-02-02T04:25:56;12.25;;;2.30;;
28170;SDS011;15458;53.346;-1.688;2023-02-02T04:28:23;9.68;;;2.25;;
28170;SDS011;15458;53.346;-1.688;2023-02-02T04:30:50;14.80;;;2.63;;
28170;SDS011;15458;53.346;-1.688;2023-02-02T04:33:16;10.88;;;2.15;;
28170;SDS011;15458;53.346;-1.688;2023-02-02T04:35:44;12.65;;;2.30;;
28170;SDS011;15458;53.346;-1.688;2023-02-02T04:38:13;5.95;;;1.88;;
28170;SDS011;15458;53.346;-1.688;2023-02-02T04:40:41;11.77;;;1.98;;
28170;SDS011;15458;53.346;-1.688;2023-02-02T04:43:07;7.35;;;1.98;;
28170;SDS011;15458;53.346;-1.688;2023-02-02T04:45:35;8.57;;;1.83;;
28170;SDS011;15458;53.346;-1.688;2023-02-02T04:48:00;13.32;;;2.63;;
28170;SDS011;15458;53.346;-1.688;2023-02-02T04:50:27;7.13;;;2.20;;
28170;SDS011;15458;53.346;-1.688;2023-02-02T04:52:53;10.82;;;2.40;;
28170;SDS011;15458;53.346;-1.688;2023-02-02T04:55:18;11.05;;;2.42;;
28170;SDS011;15458;53.346;-1.688;2023-02-02T04:57:44;10.75;;;2.30;;
28170;SDS011;15458;53.346;-1.688;2023-02-02T05:00:10;7.78;;;2.63;;
28170;SDS011;15458;53.346;-1.688;2023-02-02T05:02:37;10.13;;;2.67;;
28170;SDS011;15458;53.346;-1.688;2023-02-02T05:05:06;6.90;;;2.33;;
28170;SDS011;15458;53.346;-1.688;2023-02-02T05:07:35;7.93;;;2.80;;
28170;SDS011;15458;53.346;-1.688;2023-02-02T05:10:01;7.90;;;2.53;;
28170;SDS011;15458;53.346;-1.688;2023-02-02T05:12:27;9.73;;;2.78;;
28170;SDS011;15458;53.346;-1.688;2023-02-02T05:14:53;6.13;;;2.67;;
28170;SDS011;15458;53.346;-1.688;2023-02-02T05:17:19;8.68;;;2.70;;
28170;SDS011;15458;53.346;-1.688;2023-02-02T05:19:44;7.55;;;2.50;;
28170;SDS011;15458;53.346;-1.688;2023-02-02T05:22:10;11.45;;;3.45;;
28170;SDS011;15458;53.346;-1.688;2023-02-02T05:24:35;4.63;;;2.45;;
28170;SDS011;15458;53.346;-1.688;2023-02-02T05:27:01;4.00;;;2.92;;
28170;SDS011;15458;53.346;-1.688;2023-02-02T05:29:27;7.28;;;3.10;;
28170;SDS011;15458;53.346;-1.688;2023-02-02T05:31:54;6.43;;;2.83;;
28170;SDS011;15458;53.346;-1.688;2023-02-02T05:34:20;3.55;;;2.63;;
28170;SDS011;15458;53.346;-1.688;2023-02-02T05:36:47;7.63;;;2.55;;
28170;SDS011;15458;53.346;-1.688;2023-02-02T05:39:13;5.55;;;2.90;;
28170;SDS011;15458;53.346;-1.688;2023-02-02T05:41:38;11.73;;;3.25;;
28170;SDS011;15458;53.346;-1.688;2023-02-02T05:44:04;9.05;;;3.60;;
28170;SDS011;15458;53.346;-1.688;2023-02-02T05:46:30;9.07;;;2.83;;
28170;SDS011;15458;53.346;-1.688;2023-02-02T05:48:56;8.30;;;2.22;;
28170;SDS011;15458;53.346;-1.688;2023-02-02T05:51:27;7.85;;;2.55;;
28170;SDS011;15458;53.346;-1.688;2023-02-02T05:53:55;6.95;;;2.20;;
28170;SDS011;15458;53.346;-1.688;2023-02-02T05:56:21;5.88;;;2.20;;
28170;SDS011;15458;53.346;-1.688;2023-02-02T05:58:46;9.95;;;2.90;;
28170;SDS011;15458;53.346;-1.688;2023-02-02T06:01:14;7.05;;;2.55;;
28170;SDS011;15458;53.346;-1.688;2023-02-02T06:03:41;12.00;;;3.55;;
28170;SDS011;15458;53.346;-1.688;2023-02-02T06:06:06;5.82;;;2.50;;
28170;SDS011;15458;53.346;-1.688;2023-02-02T06:08:33;8.77;;;2.47;;
28170;SDS011;15458;53.346;-1.688;2023-02-02T06:10:59;9.77;;;3.03;;
28170;SDS011;15458;53.346;-1.688;2023-02-02T06:13:28;8.52;;;3.22;;
28170;SDS011;15458;53.346;-1.688;2023-02-02T06:15:56;7.43;;;3.63;;
28170;SDS011;15458;53.346;-1.688;2023-02-02T06:18:21;6.72;;;3.70;;
28170;SDS011;15458;53.346;-1.688;2023-02-02T06:20:47;6.85;;;3.35;;
28170;SDS011;15458;53.346;-1.688;2023-02-02T06:23:12;20.25;;;5.57;;
28170;SDS011;15458;53.346;-1.688;2023-02-02T06:25:38;10.02;;;5.00;;
28170;SDS011;15458;53.346;-1.688;2023-02-02T06:28:04;11.20;;;5.10;;
28170;SDS011;15458;53.346;-1.688;2023-02-02T06:30:30;9.50;;;3.72;;
28170;SDS011;15458;53.346;-1.688;2023-02-02T06:32:57;5.63;;;4.10;;
28170;SDS011;15458;53.346;-1.688;2023-02-02T06:35:23;6.05;;;4.07;;
28170;SDS011;15458;53.346;-1.688;2023-02-02T06:37:49;13.13;;;4.78;;
28170;SDS011;15458;53.346;-1.688;2023-02-02T06:40:15;9.82;;;5.65;;
28170;SDS011;15458;53.346;-1.688;2023-02-02T06:42:40;10.20;;;5.93;;
28170;SDS011;15458;53.346;-1.688;2023-02-02T06:45:06;10.77;;;5.72;;
28170;SDS011;15458;53.346;-1.688;2023-02-02T06:47:32;12.30;;;5.75;;
28170;SDS011;15458;53.346;-1.688;2023-02-02T06:49:58;7.88;;;4.25;;
28170;SDS011;15458;53.346;-1.688;2023-02-02T06:52:23;9.23;;;5.20;;
28170;SDS011;15458;53.346;-1.688;2023-02-02T06:54:49;9.93;;;5.50;;
28170;SDS011;15458;53.346;-1.688;2023-02-02T06:57:15;10.93;;;5.57;;
28170;SDS011;15458;53.346;-1.688;2023-02-02T06:59:41;8.70;;;4.72;;
28170;SDS011;15458;53.346;-1.688;2023-02-02T07:02:10;8.30;;;3.72;;
28170;SDS011;15458;53.346;-1.688;2023-02-02T07:04:37;6.50;;;4.28;;
28170;SDS011;15458;53.346;-1.688;2023-02-02T07:07:03;13.43;;;6.28;;
28170;SDS011;15458;53.346;-1.688;2023-02-02T07:09:31;8.90;;;6.75;;
28170;SDS011;15458;53.346;-1.688;2023-02-02T07:11:57;11.13;;;6.53;;
28170;SDS011;15458;53.346;-1.688;2023-02-02T07:14:23;24.65;;;7.70;;
28170;SDS011;15458;53.346;-1.688;2023-02-02T07:16:49;14.75;;;6.45;;
28170;SDS011;15458;53.346;-1.688;2023-02-02T07:19:14;12.20;;;5.95;;
28170;SDS011;15458;53.346;-1.688;2023-02-02T07:21:40;8.60;;;5.80;;
28170;SDS011;15458;53.346;-1.688;2023-02-02T07:24:06;13.20;;;5.80;;
28170;SDS011;15458;53.346;-1.688;2023-02-02T07:26:32;10.88;;;5.82;;
28170;SDS011;15458;53.346;-1.688;2023-02-02T07:29:00;7.63;;;5.68;;
28170;SDS011;15458;53.346;-1.688;2023-02-02T07:31:26;16.52;;;5.45;;
28170;SDS011;15458;53.346;-1.688;2023-02-02T07:33:53;10.95;;;5.65;;
28170;SDS011;15458;53.346;-1.688;2023-02-02T07:36:20;11.32;;;5.22;;
28170;SDS011;15458;53.346;-1.688;2023-02-02T07:38:49;9.07;;;5.25;;
28170;SDS011;15458;53.346;-1.688;2023-02-02T07:41:15;11.48;;;4.80;;
28170;SDS011;15458;53.346;-1.688;2023-02-02T07:43:41;12.15;;;4.68;;
28170;SDS011;15458;53.346;-1.688;2023-02-02T07:46:07;15.18;;;5.72;;
28170;SDS011;15458;53.346;-1.688;2023-02-02T07:48:36;7.97;;;4.50;;
28170;SDS011;15458;53.346;-1.688;2023-02-02T07:51:04;15.70;;;6.03;;
28170;SDS011;15458;53.346;-1.688;2023-02-02T07:53:32;7.05;;;4.85;;
28170;SDS011;15458;53.346;-1.688;2023-02-02T07:56:08;9.10;;;4.80;;
28170;SDS011;15458;53.346;-1.688;2023-02-02T07:58:38;13.17;;;5.50;;
28170;SDS011;15458;53.346;-1.688;2023-02-02T08:01:05;9.60;;;5.10;;
28170;SDS011;15458;53.346;-1.688;2023-02-02T08:03:33;10.73;;;5.18;;
28170;SDS011;15458;53.346;-1.688;2023-02-02T08:05:59;11.68;;;5.53;;
28170;SDS011;15458;53.346;-1.688;2023-02-02T08:08:25;10.55;;;4.50;;
28170;SDS011;15458;53.346;-1.688;2023-02-02T08:14:02;7.97;;;3.45;;
28170;SDS011;15458;53.346;-1.688;2023-02-02T08:16:29;6.90;;;3.25;;
28170;SDS011;15458;53.346;-1.688;2023-02-02T08:18:56;8.13;;;3.70;;
28170;SDS011;15458;53.346;-1.688;2023-02-02T08:21:22;8.20;;;4.30;;
28170;SDS011;15458;53.346;-1.688;2023-02-02T08:23:52;6.13;;;2.88;;
28170;SDS011;15458;53.346;-1.688;2023-02-02T08:26:22;9.30;;;3.53;;
28170;SDS011;15458;53.346;-1.688;2023-02-02T08:28:52;7.68;;;2.75;;
28170;SDS011;15458;53.346;-1.688;2023-02-02T08:31:27;5.38;;;2.30;;
28170;SDS011;15458;53.346;-1.688;2023-02-02T08:33:56;3.80;;;2.25;;
28170;SDS011;15458;53.346;-1.688;2023-02-02T08:36:25;3.53;;;2.08;;
28170;SDS011;15458;53.346;-1.688;2023-02-02T08:38:58;5.78;;;2.10;;
28170;SDS011;15458;53.346;-1.688;2023-02-02T08:41:35;3.25;;;1.92;;
28170;SDS011;15458;53.346;-1.688;2023-02-02T08:44:06;7.53;;;1.52;;
28170;SDS011;15458;53.346;-1.688;2023-02-02T08:46:35;3.50;;;1.97;;
28170;SDS011;15458;53.346;-1.688;2023-02-02T08:49:01;3.63;;;1.25;;
28170;SDS011;15458;53.346;-1.688;2023-02-02T08:51:27;7.22;;;2.40;;
28170;SDS011;15458;53.346;-1.688;2023-02-02T08:53:53;8.02;;;2.20;;
28170;SDS011;15458;53.346;-1.688;2023-02-02T08:56:19;6.97;;;1.95;;
28170;SDS011;15458;53.346;-1.688;2023-02-02T08:58:47;5.43;;;2.00;;
28170;SDS011;15458;53.346;-1.688;2023-02-02T09:01:15;6.60;;;2.00;;
28170;SDS011;15458;53.346;-1.688;2023-02-02T09:03:51;6.72;;;2.50;;
28170;SDS011;15458;53.346;-1.688;2023-02-02T09:06:21;5.15;;;1.52;;
28170;SDS011;15458;53.346;-1.688;2023-02-02T09:08:52;8.90;;;2.92;;
28170;SDS011;15458;53.346;-1.688;2023-02-02T09:14:09;7.63;;;1.25;;
28170;SDS011;15458;53.346;-1.688;2023-02-02T09:16:37;4.90;;;1.58;;
28170;SDS011;15458;53.346;-1.688;2023-02-02T09:19:03;5.07;;;1.60;;
28170;SDS011;15458;53.346;-1.688;2023-02-02T09:21:31;3.53;;;1.60;;
28170;SDS011;15458;53.346;-1.688;2023-02-02T09:24:04;5.57;;;2.40;;
28170;SDS011;15458;53.346;-1.688;2023-02-02T09:26:35;8.65;;;2.00;;
28170;SDS011;15458;53.346;-1.688;2023-02-02T09:29:02;7.28;;;1.95;;
28170;SDS011;15458;53.346;-1.688;2023-02-02T09:31:33;7.63;;;1.88;;
28170;SDS011;15458;53.346;-1.688;2023-02-02T09:34:03;4.78;;;1.33;;
28170;SDS011;15458;53.346;-1.688;2023-02-02T09:36:31;7.43;;;1.67;;
28170;SDS011;15458;53.346;-1.688;2023-02-02T09:38:56;7.82;;;2.78;;
28170;SDS011;15458;53.346;-1.688;2023-02-02T09:46:59;1.13;;;0.88;;
28170;SDS011;15458;53.346;-1.688;2023-02-02T09:50:02;4.60;;;0.90;;
28170;SDS011;15458;53.346;-1.688;2023-02-02T09:52:38;2.47;;;1.10;;
28170;SDS011;15458;53.346;-1.688;2023-02-02T09:55:42;3.63;;;1.08;;
28170;SDS011;15458;53.346;-1.688;2023-02-02T10:00:43;4.18;;;1.13;;
28170;SDS011;15458;53.346;-1.688;2023-02-02T10:08:35;3.95;;;0.93;;
28170;SDS011;15458;53.346;-1.688;2023-02-02T10:13:51;4.72;;;0.90;;
28170;SDS011;15458;53.346;-1.688;2023-02-02T10:16:24;0.90;;;0.80;;
28170;SDS011;15458;53.346;-1.688;2023-02-02T10:21:28;0.60;;;0.60;;
28170;SDS011;15458;53.346;-1.688;2023-02-02T10:24:16;5.35;;;0.98;;
28170;SDS011;15458;53.346;-1.688;2023-02-02T10:26:52;1.48;;;0.90;;
28170;SDS011;15458;53.346;-1.688;2023-02-02T10:32:22;2.35;;;1.40;;
28170;SDS011;15458;53.346;-1.688;2023-02-02T10:38:05;0.80;;;0.80;;
28170;SDS011;15458;53.346;-1.688;2023-02-02T10:41:12;2.00;;;1.15;;
28170;SDS011;15458;53.346;-1.688;2023-02-02T10:49:07;2.20;;;1.17;;
28170;SDS011;15458;53.346;-1.688;2023-02-02T10:51:58;4.85;;;1.08;;
28170;SDS011;15458;53.346;-1.688;2023-02-02T10:57:08;4.93;;;1.00;;
28170;SDS011;15458;53.346;-1.688;2023-02-02T11:00:01;0.80;;;0.80;;
28170;SDS011;15458;53.346;-1.688;2023-02-02T11:02:43;1.85;;;0.80;;
28170;SDS011;15458;53.346;-1.688;2023-02-02T11:05:30;3.20;;;0.75;;
28170;SDS011;15458;53.346;-1.688;2023-02-02T11:08:18;1.70;;;0.70;;
28170;SDS011;15458;53.346;-1.688;2023-02-02T11:10:51;0.45;;;0.30;;
28170;SDS011;15458;53.346;-1.688;2023-02-02T11:13:29;1.38;;;0.40;;
28170;SDS011;15458;53.346;-1.688;2023-02-02T11:18:40;2.10;;;0.60;;
28170;SDS011;15458;53.346;-1.688;2023-02-02T11:21:18;1.42;;;0.50;;
28170;SDS011;15458;53.346;-1.688;2023-02-02T11:24:01;2.10;;;1.10;;
28170;SDS011;15458;53.346;-1.688;2023-02-02T11:26:44;1.40;;;0.60;;
28170;SDS011;15458;53.346;-1.688;2023-02-02T11:29:41;2.95;;;0.90;;
28170;SDS011;15458;53.346;-1.688;2023-02-02T11:35:15;1.40;;;0.70;;
28170;SDS011;15458;53.346;-1.688;2023-02-02T11:37:53;1.35;;;0.50;;
28170;SDS011;15458;53.346;-1.688;2023-02-02T11:42:59;6.75;;;1.00;;
28170;SDS011;15458;53.346;-1.688;2023-02-02T11:45:31;1.67;;;0.52;;
28170;SDS011;15458;53.346;-1.688;2023-02-02T11:48:19;1.23;;;0.65;;
28170;SDS011;15458;53.346;-1.688;2023-02-02T11:51:06;3.35;;;0.75;;
28170;SDS011;15458;53.346;-1.688;2023-02-02T11:53:44;3.42;;;0.60;;
28170;SDS011;15458;53.346;-1.688;2023-02-02T11:56:19;3.53;;;0.93;;
28170;SDS011;15458;53.346;-1.688;2023-02-02T11:58:53;0.95;;;0.60;;
28170;SDS011;15458;53.346;-1.688;2023-02-02T12:01:34;1.83;;;0.50;;
28170;SDS011;15458;53.346;-1.688;2023-02-02T12:06:40;2.63;;;1.10;;
28170;SDS011;15458;53.346;-1.688;2023-02-02T12:09:11;1.10;;;1.00;;
28170;SDS011;15458;53.346;-1.688;2023-02-02T12:25:11;0.93;;;0.60;;
28170;SDS011;15458;53.346;-1.688;2023-02-02T12:30:42;1.45;;;0.60;;
28170;SDS011;15458;53.346;-1.688;2023-02-02T12:33:22;2.00;;;1.00;;
28170;SDS011;15458;53.346;-1.688;2023-02-02T12:41:07;1.77;;;0.65;;
28170;SDS011;15458;53.346;-1.688;2023-02-02T12:52:56;0.98;;;0.40;;
28170;SDS011;15458;53.346;-1.688;2023-02-02T13:07:17;1.75;;;0.80;;
28170;SDS011;15458;53.346;-1.688;2023-02-02T13:12:59;2.33;;;1.10;;
28170;SDS011;15458;53.346;-1.688;2023-02-02T13:15:30;2.55;;;0.90;;
28170;SDS011;15458;53.346;-1.688;2023-02-02T13:18:00;2.47;;;1.02;;
28170;SDS011;15458;53.346;-1.688;2023-02-02T13:20:41;1.23;;;1.13;;
28170;SDS011;15458;53.346;-1.688;2023-02-02T13:23:24;1.33;;;0.88;;
28170;SDS011;15458;53.346;-1.688;2023-02-02T13:26:06;1.80;;;0.63;;
28170;SDS011;15458;53.346;-1.688;2023-02-02T13:28:51;5.85;;;1.00;;
28170;SDS011;15458;53.346;-1.688;2023-02-02T13:31:29;3.53;;;1.20;;
28170;SDS011;15458;53.346;-1.688;2023-02-02T13:34:06;1.50;;;0.60;;
28170;SDS011;15458;53.346;-1.688;2023-02-02T13:36:42;2.55;;;0.88;;
28170;SDS011;15458;53.346;-1.688;2023-02-02T13:39:16;2.85;;;0.80;;
28170;SDS011;15458;53.346;-1.688;2023-02-02T13:41:49;2.95;;;0.55;;
28170;SDS011;15458;53.346;-1.688;2023-02-02T13:44:20;0.50;;;0.30;;
28170;SDS011;15458;53.346;-1.688;2023-02-02T13:47:02;2.55;;;0.95;;
28170;SDS011;15458;53.346;-1.688;2023-02-02T13:49:42;0.75;;;0.70;;
28170;SDS011;15458;53.346;-1.688;2023-02-02T14:00:43;0.98;;;0.52;;
28170;SDS011;15458;53.346;-1.688;2023-02-02T14:03:37;1.33;;;0.32;;
28170;SDS011;15458;53.346;-1.688;2023-02-02T14:06:26;3.42;;;0.63;;
28170;SDS011;15458;53.346;-1.688;2023-02-02T14:08:55;1.05;;;0.38;;
28170;SDS011;15458;53.346;-1.688;2023-02-02T14:11:30;0.82;;;0.25;;
28170;SDS011;15458;53.346;-1.688;2023-02-02T14:14:05;1.65;;;0.43;;
28170;SDS011;15458;53.346;-1.688;2023-02-02T14:16:56;2.60;;;0.50;;
28170;SDS011;15458;53.346;-1.688;2023-02-02T14:26:54;3.40;;;0.68;;
28170;SDS011;15458;53.346;-1.688;2023-02-02T14:34:49;1.38;;;0.25;;
28170;SDS011;15458;53.346;-1.688;2023-02-02T14:40:02;1.92;;;0.40;;
28170;SDS011;15458;53.346;-1.688;2023-02-02T14:45:42;1.00;;;0.28;;
28170;SDS011;15458;53.346;-1.688;2023-02-02T14:48:22;1.75;;;0.30;;
28170;SDS011;15458;53.346;-1.688;2023-02-02T14:56:04;0.38;;;0.30;;
28170;SDS011;15458;53.346;-1.688;2023-02-02T14:58:43;0.57;;;0.20;;
28170;SDS011;15458;53.346;-1.688;2023-02-02T15:01:21;0.45;;;0.15;;
28170;SDS011;15458;53.346;-1.688;2023-02-02T15:06:49;1.15;;;0.40;;
28170;SDS011;15458;53.346;-1.688;2023-02-02T15:17:04;0.95;;;0.50;;
28170;SDS011;15458;53.346;-1.688;2023-02-02T15:19:38;1.75;;;0.55;;
28170;SDS011;15458;53.346;-1.688;2023-02-02T15:22:22;1.80;;;0.28;;
28170;SDS011;15458;53.346;-1.688;2023-02-02T15:25:00;0.40;;;0.38;;
28170;SDS011;15458;53.346;-1.688;2023-02-02T15:27:31;3.45;;;0.70;;
28170;SDS011;15458;53.346;-1.688;2023-02-02T15:52:33;4.35;;;0.95;;
28170;SDS011;15458;53.346;-1.688;2023-02-02T15:55:02;2.83;;;0.55;;
28170;SDS011;15458;53.346;-1.688;2023-02-02T15:57:55;3.50;;;0.60;;
28170;SDS011;15458;53.346;-1.688;2023-02-02T16:00:28;3.10;;;0.73;;
28170;SDS011;15458;53.346;-1.688;2023-02-02T16:06:16;3.60;;;0.90;;
28170;SDS011;15458;53.346;-1.688;2023-02-02T16:08:42;3.85;;;0.50;;
28170;SDS011;15458;53.346;-1.688;2023-02-02T16:11:10;5.30;;;1.77;;
28170;SDS011;15458;53.346;-1.688;2023-02-02T16:13:52;3.13;;;0.95;;
28170;SDS011;15458;53.346;-1.688;2023-02-02T16:16:35;4.07;;;0.68;;
28170;SDS011;15458;53.346;-1.688;2023-02-02T16:19:05;0.85;;;0.47;;
28170;SDS011;15458;53.346;-1.688;2023-02-02T16:21:41;2.08;;;0.60;;
28170;SDS011;15458;53.346;-1.688;2023-02-02T16:24:30;4.40;;;0.47;;
28170;SDS011;15458;53.346;-1.688;2023-02-02T16:26:59;3.22;;;0.75;;
28170;SDS011;15458;53.346;-1.688;2023-02-02T16:29:26;2.08;;;0.50;;
28170;SDS011;15458;53.346;-1.688;2023-02-02T16:31:53;4.43;;;1.70;;
28170;SDS011;15458;53.346;-1.688;2023-02-02T16:37:42;2.45;;;0.70;;
28170;SDS011;15458;53.346;-1.688;2023-02-02T16:40:28;1.15;;;0.55;;
28170;SDS011;15458;53.346;-1.688;2023-02-02T16:43:04;4.28;;;0.40;;
28170;SDS011;15458;53.346;-1.688;2023-02-02T16:45:45;3.25;;;0.60;;
28170;SDS011;15458;53.346;-1.688;2023-02-02T16:48:27;4.57;;;0.80;;
28170;SDS011;15458;53.346;-1.688;2023-02-02T16:51:06;4.43;;;0.80;;
28170;SDS011;15458;53.346;-1.688;2023-02-02T16:53:35;3.05;;;1.13;;
28170;SDS011;15458;53.346;-1.688;2023-02-02T16:56:03;3.17;;;0.93;;
28170;SDS011;15458;53.346;-1.688;2023-02-02T16:58:29;1.92;;;0.80;;
28170;SDS011;15458;53.346;-1.688;2023-02-02T17:00:57;4.13;;;1.27;;
28170;SDS011;15458;53.346;-1.688;2023-02-02T17:03:33;2.65;;;1.00;;
28170;SDS011;15458;53.346;-1.688;2023-02-02T17:06:00;4.80;;;0.90;;
28170;SDS011;15458;53.346;-1.688;2023-02-02T17:08:34;2.65;;;0.73;;
28170;SDS011;15458;53.346;-1.688;2023-02-02T17:11:06;4.68;;;1.13;;
28170;SDS011;15458;53.346;-1.688;2023-02-02T17:13:52;4.53;;;1.10;;
28170;SDS011;15458;53.346;-1.688;2023-02-02T17:16:24;4.15;;;1.10;;
28170;SDS011;15458;53.346;-1.688;2023-02-02T17:18:53;19.17;;;9.82;;
28170;SDS011;15458;53.346;-1.688;2023-02-02T17:21:20;7.35;;;3.45;;
28170;SDS011;15458;53.346;-1.688;2023-02-02T17:23:51;13.80;;;5.40;;
28170;SDS011;15458;53.346;-1.688;2023-02-02T17:26:23;9.52;;;3.00;;
28170;SDS011;15458;53.346;-1.688;2023-02-02T17:28:49;6.47;;;1.90;;
28170;SDS011;15458;53.346;-1.688;2023-02-02T17:31:19;4.88;;;1.50;;
28170;SDS011;15458;53.346;-1.688;2023-02-02T17:33:45;6.10;;;2.30;;
28170;SDS011;15458;53.346;-1.688;2023-02-02T17:36:17;2.85;;;1.10;;
28170;SDS011;15458;53.346;-1.688;2023-02-02T17:38:43;3.97;;;1.77;;
28170;SDS011;15458;53.346;-1.688;2023-02-02T17:41:09;8.45;;;2.90;;
28170;SDS011;15458;53.346;-1.688;2023-02-02T17:43:42;8.55;;;2.25;;
28170;SDS011;15458;53.346;-1.688;2023-02-02T17:46:09;2.58;;;1.02;;
28170;SDS011;15458;53.346;-1.688;2023-02-02T17:48:39;5.25;;;1.67;;
28170;SDS011;15458;53.346;-1.688;2023-02-02T17:51:23;5.38;;;2.65;;
28170;SDS011;15458;53.346;-1.688;2023-02-02T17:53:49;10.43;;;2.92;;
28170;SDS011;15458;53.346;-1.688;2023-02-02T17:56:16;7.78;;;2.97;;
28170;SDS011;15458;53.346;-1.688;2023-02-02T17:58:45;8.88;;;2.65;;
28170;SDS011;15458;53.346;-1.688;2023-02-02T18:01:11;4.75;;;1.63;;
28170;SDS011;15458;53.346;-1.688;2023-02-02T18:03:37;8.48;;;1.77;;
28170;SDS011;15458;53.346;-1.688;2023-02-02T18:06:05;8.70;;;2.10;;
28170;SDS011;15458;53.346;-1.688;2023-02-02T18:08:31;8.68;;;1.40;;